sensor_id;sensor_type;location;lat;lon;timestamp;P1;durP1;ratioP1;P2;durP2;ratioP2
68744;SDS011;66104;45.456;11.064;2022-12-18T00:00:27;8.70;;;5.60;;
68744;SDS011;66104;45.456;11.064;2022-12-18T00:03:04;6.50;;;5.00;;
68744;SDS011;66104;45.456;11.064;2022-12-18T00:05:47;6.20;;;4.80;;
68744;SDS011;66104;45.456;11.064;2022-12-18T00:08:25;8.00;;;4.70;;
68744;SDS011;66104;45.456;11.064;2022-12-18T00:11:08;6.20;;;4.30;;
68744;SDS011;66104;45.456;11.064;2022-12-18T00:13:47;7.30;;;4.70;;
68744;SDS011;66104;45.456;11.064;2022-12-18T00:16:24;6.30;;;4.70;;
68744;SDS011;66104;45.456;11.064;2022-12-18T00:19:06;8.70;;;5.90;;
68744;SDS011;66104;45.456;11.064;2022-12-18T00:21:45;8.90;;;5.60;;
68744;SDS011;66104;45.456;11.064;2022-12-18T00:24:22;7.10;;;4.80;;
68744;SDS011;66104;45.456;11.064;2022-12-18T00:27:00;6.40;;;4.60;;
68744;SDS011;66104;45.456;11.064;2022-12-18T00:29:37;7.30;;;4.60;;
68744;SDS011;66104;45.456;11.064;2022-12-18T00:32:13;9.80;;;5.10;;
68744;SDS011;66104;45.456;11.064;2022-12-18T00:34:49;6.40;;;5.90;;
68744;SDS011;66104;45.456;11.064;2022-12-18T00:37:26;6.90;;;4.60;;
68744;SDS011;66104;45.456;11.064;2022-12-18T00:40:04;6.80;;;4.30;;
68744;SDS011;66104;45.456;11.064;2022-12-18T00:42:45;9.90;;;6.30;;
68744;SDS011;66104;45.456;11.064;2022-12-18T00:45:31;9.80;;;5.70;;
68744;SDS011;66104;45.456;11.064;2022-12-18T00:48:08;6.90;;;5.40;;
68744;SDS011;66104;45.456;11.064;2022-12-18T00:50:45;6.80;;;4.80;;
68744;SDS011;66104;45.456;11.064;2022-12-18T00:53:23;8.30;;;5.20;;
68744;SDS011;66104;45.456;11.064;2022-12-18T00:55:59;6.30;;;4.70;;
68744;SDS011;66104;45.456;11.064;2022-12-18T00:58:40;6.90;;;5.10;;
68744;SDS011;66104;45.456;11.064;2022-12-18T01:01:17;6.80;;;4.60;;
68744;SDS011;66104;45.456;11.064;2022-12-18T01:03:54;6.80;;;5.40;;
68744;SDS011;66104;45.456;11.064;2022-12-18T01:06:31;6.90;;;5.20;;
68744;SDS011;66104;45.456;11.064;2022-12-18T01:09:07;11.20;;;7.40;;
68744;SDS011;66104;45.456;11.064;2022-12-18T01:11:44;16.30;;;7.10;;
68744;SDS011;66104;45.456;11.064;2022-12-18T01:14:20;10.90;;;7.00;;
68744;SDS011;66104;45.456;11.064;2022-12-18T01:16:57;9.50;;;6.50;;
68744;SDS011;66104;45.456;11.064;2022-12-18T01:19:37;10.70;;;6.50;;
68744;SDS011;66104;45.456;11.064;2022-12-18T01:22:14;8.50;;;6.50;;
68744;SDS011;66104;45.456;11.064;2022-12-18T01:24:51;8.80;;;5.60;;
68744;SDS011;66104;45.456;11.064;2022-12-18T01:27:28;9.70;;;6.70;;
68744;SDS011;66104;45.456;11.064;2022-12-18T01:30:04;9.40;;;6.20;;
68744;SDS011;66104;45.456;11.064;2022-12-18T01:35:59;9.40;;;6.90;;
68744;SDS011;66104;45.456;11.064;2022-12-18T01:38:36;11.30;;;7.30;;
68744;SDS011;66104;45.456;11.064;2022-12-18T01:41:13;11.10;;;6.80;;
68744;SDS011;66104;45.456;11.064;2022-12-18T01:43:54;12.90;;;6.30;;
68744;SDS011;66104;45.456;11.064;2022-12-18T01:46:30;9.00;;;6.30;;
68744;SDS011;66104;45.456;11.064;2022-12-18T01:49:07;10.50;;;6.60;;
68744;SDS011;66104;45.456;11.064;2022-12-18T01:51:44;9.00;;;6.30;;
68744;SDS011;66104;45.456;11.064;2022-12-18T01:54:21;8.40;;;6.50;;
68744;SDS011;66104;45.456;11.064;2022-12-18T01:56:58;8.60;;;5.70;;
68744;SDS011;66104;45.456;11.064;2022-12-18T01:59:35;11.50;;;7.30;;
68744;SDS011;66104;45.456;11.064;2022-12-18T02:02:15;12.60;;;6.70;;
68744;SDS011;66104;45.456;11.064;2022-12-18T02:04:52;9.40;;;6.30;;
68744;SDS011;66104;45.456;11.064;2022-12-18T02:07:35;8.40;;;6.00;;
68744;SDS011;66104;45.456;11.064;2022-12-18T02:10:22;9.90;;;6.10;;
68744;SDS011;66104;45.456;11.064;2022-12-18T02:13:09;7.90;;;5.60;;
68744;SDS011;66104;45.456;11.064;2022-12-18T02:16:01;8.10;;;5.80;;
68744;SDS011;66104;45.456;11.064;2022-12-18T02:18:50;7.90;;;5.10;;
68744;SDS011;66104;45.456;11.064;2022-12-18T02:21:36;8.00;;;5.50;;
68744;SDS011;66104;45.456;11.064;2022-12-18T02:24:31;7.20;;;5.30;;
68744;SDS011;66104;45.456;11.064;2022-12-18T02:27:13;8.50;;;5.90;;
68744;SDS011;66104;45.456;11.064;2022-12-18T02:29:53;7.20;;;5.50;;
68744;SDS011;66104;45.456;11.064;2022-12-18T02:32:34;7.80;;;4.90;;
68744;SDS011;66104;45.456;11.064;2022-12-18T02:35:16;6.50;;;5.00;;
68744;SDS011;66104;45.456;11.064;2022-12-18T02:37:58;6.40;;;4.60;;
68744;SDS011;66104;45.456;11.064;2022-12-18T02:40:39;8.90;;;5.20;;
68744;SDS011;66104;45.456;11.064;2022-12-18T02:43:19;9.10;;;5.80;;
68744;SDS011;66104;45.456;11.064;2022-12-18T02:45:58;9.80;;;6.60;;
68744;SDS011;66104;45.456;11.064;2022-12-18T02:48:48;9.70;;;6.80;;
68744;SDS011;66104;45.456;11.064;2022-12-18T02:51:32;13.00;;;6.30;;
68744;SDS011;66104;45.456;11.064;2022-12-18T02:54:26;7.60;;;5.80;;
68744;SDS011;66104;45.456;11.064;2022-12-18T02:57:23;7.80;;;5.50;;
68744;SDS011;66104;45.456;11.064;2022-12-18T03:00:11;10.60;;;5.20;;
68744;SDS011;66104;45.456;11.064;2022-12-18T03:02:51;8.50;;;6.00;;
68744;SDS011;66104;45.456;11.064;2022-12-18T03:05:36;8.20;;;5.50;;
68744;SDS011;66104;45.456;11.064;2022-12-18T03:08:20;10.80;;;6.80;;
68744;SDS011;66104;45.456;11.064;2022-12-18T03:11:03;9.70;;;6.50;;
68744;SDS011;66104;45.456;11.064;2022-12-18T03:13:46;10.00;;;6.90;;
68744;SDS011;66104;45.456;11.064;2022-12-18T03:16:27;8.50;;;6.20;;
68744;SDS011;66104;45.456;11.064;2022-12-18T03:19:08;7.90;;;6.00;;
68744;SDS011;66104;45.456;11.064;2022-12-18T03:21:54;7.50;;;5.50;;
68744;SDS011;66104;45.456;11.064;2022-12-18T03:24:46;8.90;;;6.40;;
68744;SDS011;66104;45.456;11.064;2022-12-18T03:27:28;8.20;;;6.10;;
68744;SDS011;66104;45.456;11.064;2022-12-18T03:30:11;11.70;;;5.80;;
68744;SDS011;66104;45.456;11.064;2022-12-18T03:32:52;8.30;;;6.50;;
68744;SDS011;66104;45.456;11.064;2022-12-18T03:35:36;8.70;;;6.30;;
68744;SDS011;66104;45.456;11.064;2022-12-18T03:38:16;11.50;;;6.60;;
68744;SDS011;66104;45.456;11.064;2022-12-18T03:41:02;7.10;;;6.10;;
68744;SDS011;66104;45.456;11.064;2022-12-18T03:44:14;10.60;;;6.50;;
68744;SDS011;66104;45.456;11.064;2022-12-18T03:47:06;9.50;;;6.60;;
68744;SDS011;66104;45.456;11.064;2022-12-18T03:49:53;8.20;;;6.30;;
68744;SDS011;66104;45.456;11.064;2022-12-18T03:52:47;7.50;;;6.00;;
68744;SDS011;66104;45.456;11.064;2022-12-18T03:55:27;10.60;;;6.00;;
68744;SDS011;66104;45.456;11.064;2022-12-18T03:58:08;9.00;;;6.90;;
68744;SDS011;66104;45.456;11.064;2022-12-18T04:00:59;12.30;;;6.90;;
68744;SDS011;66104;45.456;11.064;2022-12-18T04:03:40;9.10;;;6.60;;
68744;SDS011;66104;45.456;11.064;2022-12-18T04:06:21;8.30;;;6.30;;
68744;SDS011;66104;45.456;11.064;2022-12-18T04:08:58;10.50;;;6.40;;
68744;SDS011;66104;45.456;11.064;2022-12-18T04:11:38;7.90;;;5.60;;
68744;SDS011;66104;45.456;11.064;2022-12-18T04:14:17;10.90;;;6.50;;
68744;SDS011;66104;45.456;11.064;2022-12-18T04:16:57;12.90;;;7.50;;
68744;SDS011;66104;45.456;11.064;2022-12-18T04:19:35;11.60;;;7.10;;
68744;SDS011;66104;45.456;11.064;2022-12-18T04:22:14;8.90;;;6.70;;
68744;SDS011;66104;45.456;11.064;2022-12-18T04:24:54;9.30;;;6.50;;
68744;SDS011;66104;45.456;11.064;2022-12-18T04:27:35;13.60;;;6.50;;
68744;SDS011;66104;45.456;11.064;2022-12-18T04:30:16;10.00;;;7.00;;
68744;SDS011;66104;45.456;11.064;2022-12-18T04:32:53;10.00;;;6.90;;
68744;SDS011;66104;45.456;11.064;2022-12-18T04:35:30;9.70;;;6.40;;
68744;SDS011;66104;45.456;11.064;2022-12-18T04:38:08;12.90;;;8.00;;
68744;SDS011;66104;45.456;11.064;2022-12-18T04:40:45;8.80;;;6.70;;
68744;SDS011;66104;45.456;11.064;2022-12-18T04:43:26;10.50;;;7.40;;
68744;SDS011;66104;45.456;11.064;2022-12-18T04:46:08;11.40;;;6.20;;
68744;SDS011;66104;45.456;11.064;2022-12-18T04:48:48;11.30;;;6.50;;
68744;SDS011;66104;45.456;11.064;2022-12-18T04:51:24;13.00;;;6.30;;
68744;SDS011;66104;45.456;11.064;2022-12-18T04:54:01;8.80;;;6.40;;
68744;SDS011;66104;45.456;11.064;2022-12-18T04:56:39;8.40;;;5.30;;
68744;SDS011;66104;45.456;11.064;2022-12-18T04:59:17;8.00;;;6.60;;
68744;SDS011;66104;45.456;11.064;2022-12-18T05:01:54;8.10;;;6.10;;
68744;SDS011;66104;45.456;11.064;2022-12-18T05:04:31;8.60;;;6.20;;
68744;SDS011;66104;45.456;11.064;2022-12-18T05:07:09;10.00;;;5.80;;
68744;SDS011;66104;45.456;11.064;2022-12-18T05:09:46;8.30;;;5.90;;
68744;SDS011;66104;45.456;11.064;2022-12-18T05:12:24;8.60;;;6.50;;
68744;SDS011;66104;45.456;11.064;2022-12-18T05:15:06;10.40;;;5.90;;
68744;SDS011;66104;45.456;11.064;2022-12-18T05:17:45;11.60;;;7.80;;
68744;SDS011;66104;45.456;11.064;2022-12-18T05:20:22;12.80;;;9.10;;
68744;SDS011;66104;45.456;11.064;2022-12-18T05:22:59;11.90;;;8.10;;
68744;SDS011;66104;45.456;11.064;2022-12-18T05:25:36;11.40;;;8.00;;
68744;SDS011;66104;45.456;11.064;2022-12-18T05:28:13;12.00;;;6.80;;
68744;SDS011;66104;45.456;11.064;2022-12-18T05:30:52;10.70;;;6.40;;
68744;SDS011;66104;45.456;11.064;2022-12-18T05:33:32;9.70;;;6.10;;
68744;SDS011;66104;45.456;11.064;2022-12-18T05:36:10;8.90;;;5.80;;
68744;SDS011;66104;45.456;11.064;2022-12-18T05:38:46;8.70;;;6.20;;
68744;SDS011;66104;45.456;11.064;2022-12-18T05:41:24;8.40;;;6.80;;
68744;SDS011;66104;45.456;11.064;2022-12-18T05:44:02;8.90;;;6.10;;
68744;SDS011;66104;45.456;11.064;2022-12-18T05:46:39;8.60;;;5.80;;
68744;SDS011;66104;45.456;11.064;2022-12-18T05:49:16;8.60;;;6.00;;
68744;SDS011;66104;45.456;11.064;2022-12-18T05:51:52;7.40;;;5.60;;
68744;SDS011;66104;45.456;11.064;2022-12-18T05:54:31;9.50;;;6.00;;
68744;SDS011;66104;45.456;11.064;2022-12-18T05:57:08;7.60;;;5.20;;
68744;SDS011;66104;45.456;11.064;2022-12-18T05:59:44;11.30;;;5.30;;
68744;SDS011;66104;45.456;11.064;2022-12-18T06:02:21;10.10;;;7.10;;
68744;SDS011;66104;45.456;11.064;2022-12-18T06:04:58;10.40;;;6.70;;
68744;SDS011;66104;45.456;11.064;2022-12-18T06:07:34;10.10;;;6.50;;
68744;SDS011;66104;45.456;11.064;2022-12-18T06:10:12;11.00;;;6.20;;
68744;SDS011;66104;45.456;11.064;2022-12-18T06:12:49;9.50;;;5.90;;
68744;SDS011;66104;45.456;11.064;2022-12-18T06:15:26;9.40;;;6.10;;
68744;SDS011;66104;45.456;11.064;2022-12-18T06:18:04;9.60;;;6.00;;
68744;SDS011;66104;45.456;11.064;2022-12-18T06:20:42;8.00;;;5.40;;
68744;SDS011;66104;45.456;11.064;2022-12-18T06:23:19;7.50;;;5.90;;
68744;SDS011;66104;45.456;11.064;2022-12-18T06:25:56;15.70;;;7.10;;
68744;SDS011;66104;45.456;11.064;2022-12-18T06:28:37;9.00;;;6.50;;
68744;SDS011;66104;45.456;11.064;2022-12-18T06:31:15;8.70;;;6.10;;
68744;SDS011;66104;45.456;11.064;2022-12-18T06:33:51;11.30;;;6.70;;
68744;SDS011;66104;45.456;11.064;2022-12-18T06:36:29;8.10;;;6.20;;
68744;SDS011;66104;45.456;11.064;2022-12-18T06:39:08;9.00;;;6.40;;
68744;SDS011;66104;45.456;11.064;2022-12-18T06:41:45;8.10;;;6.10;;
68744;SDS011;66104;45.456;11.064;2022-12-18T06:44:23;9.70;;;6.50;;
68744;SDS011;66104;45.456;11.064;2022-12-18T06:47:00;10.20;;;7.30;;
68744;SDS011;66104;45.456;11.064;2022-12-18T06:49:37;13.00;;;7.80;;
68744;SDS011;66104;45.456;11.064;2022-12-18T06:52:14;12.70;;;8.10;;
68744;SDS011;66104;45.456;11.064;2022-12-18T06:54:52;9.30;;;6.80;;
68744;SDS011;66104;45.456;11.064;2022-12-18T06:57:28;11.30;;;6.90;;
68744;SDS011;66104;45.456;11.064;2022-12-18T07:00:08;9.90;;;6.80;;
68744;SDS011;66104;45.456;11.064;2022-12-18T07:02:47;9.10;;;6.80;;
68744;SDS011;66104;45.456;11.064;2022-12-18T07:05:25;9.80;;;7.20;;
68744;SDS011;66104;45.456;11.064;2022-12-18T07:08:02;13.40;;;9.10;;
68744;SDS011;66104;45.456;11.064;2022-12-18T07:10:44;13.60;;;8.30;;
68744;SDS011;66104;45.456;11.064;2022-12-18T07:13:26;13.10;;;7.30;;
68744;SDS011;66104;45.456;11.064;2022-12-18T07:16:10;13.30;;;7.60;;
68744;SDS011;66104;45.456;11.064;2022-12-18T07:18:56;8.90;;;7.00;;
68744;SDS011;66104;45.456;11.064;2022-12-18T07:21:33;9.70;;;7.20;;
68744;SDS011;66104;45.456;11.064;2022-12-18T07:24:11;8.90;;;6.60;;
68744;SDS011;66104;45.456;11.064;2022-12-18T07:26:49;10.90;;;6.50;;
68744;SDS011;66104;45.456;11.064;2022-12-18T07:29:26;10.30;;;7.00;;
68744;SDS011;66104;45.456;11.064;2022-12-18T07:32:05;11.40;;;8.00;;
68744;SDS011;66104;45.456;11.064;2022-12-18T07:34:43;10.60;;;8.10;;
68744;SDS011;66104;45.456;11.064;2022-12-18T07:37:21;11.80;;;7.20;;
68744;SDS011;66104;45.456;11.064;2022-12-18T07:39:57;12.50;;;7.00;;
68744;SDS011;66104;45.456;11.064;2022-12-18T07:42:34;10.80;;;6.40;;
68744;SDS011;66104;45.456;11.064;2022-12-18T07:45:11;10.10;;;7.40;;
68744;SDS011;66104;45.456;11.064;2022-12-18T07:47:48;10.50;;;7.30;;
68744;SDS011;66104;45.456;11.064;2022-12-18T07:50:25;16.60;;;10.60;;
68744;SDS011;66104;45.456;11.064;2022-12-18T07:53:02;19.90;;;12.40;;
68744;SDS011;66104;45.456;11.064;2022-12-18T07:55:38;21.50;;;13.10;;
68744;SDS011;66104;45.456;11.064;2022-12-18T07:58:36;16.80;;;11.50;;
68744;SDS011;66104;45.456;11.064;2022-12-18T08:01:13;19.50;;;10.00;;
68744;SDS011;66104;45.456;11.064;2022-12-18T08:03:52;13.80;;;9.10;;
68744;SDS011;66104;45.456;11.064;2022-12-18T08:06:28;14.30;;;7.80;;
68744;SDS011;66104;45.456;11.064;2022-12-18T08:09:05;10.70;;;7.40;;
68744;SDS011;66104;45.456;11.064;2022-12-18T08:11:43;13.10;;;8.60;;
68744;SDS011;66104;45.456;11.064;2022-12-18T08:14:21;9.70;;;7.70;;
68744;SDS011;66104;45.456;11.064;2022-12-18T08:16:58;21.30;;;13.90;;
68744;SDS011;66104;45.456;11.064;2022-12-18T08:19:35;20.80;;;14.80;;
68744;SDS011;66104;45.456;11.064;2022-12-18T08:22:12;15.00;;;9.70;;
68744;SDS011;66104;45.456;11.064;2022-12-18T08:24:50;10.60;;;7.90;;
68744;SDS011;66104;45.456;11.064;2022-12-18T08:27:27;11.70;;;7.30;;
68744;SDS011;66104;45.456;11.064;2022-12-18T08:30:06;11.10;;;7.30;;
68744;SDS011;66104;45.456;11.064;2022-12-18T08:32:46;14.50;;;10.10;;
68744;SDS011;66104;45.456;11.064;2022-12-18T08:35:24;15.20;;;9.60;;
68744;SDS011;66104;45.456;11.064;2022-12-18T08:38:08;13.20;;;9.30;;
68744;SDS011;66104;45.456;11.064;2022-12-18T08:40:44;12.70;;;9.00;;
68744;SDS011;66104;45.456;11.064;2022-12-18T08:43:22;12.20;;;8.80;;
68744;SDS011;66104;45.456;11.064;2022-12-18T08:46:21;13.20;;;9.40;;
68744;SDS011;66104;45.456;11.064;2022-12-18T08:48:59;12.20;;;9.30;;
68744;SDS011;66104;45.456;11.064;2022-12-18T08:51:35;11.20;;;8.70;;
68744;SDS011;66104;45.456;11.064;2022-12-18T08:54:13;13.80;;;10.30;;
68744;SDS011;66104;45.456;11.064;2022-12-18T08:56:50;16.60;;;10.40;;
68744;SDS011;66104;45.456;11.064;2022-12-18T08:59:27;21.80;;;12.10;;
68744;SDS011;66104;45.456;11.064;2022-12-18T09:02:05;19.80;;;11.40;;
68744;SDS011;66104;45.456;11.064;2022-12-18T09:04:42;17.60;;;10.80;;
68744;SDS011;66104;45.456;11.064;2022-12-18T09:07:27;15.40;;;10.40;;
68744;SDS011;66104;45.456;11.064;2022-12-18T09:10:06;14.30;;;11.10;;
68744;SDS011;66104;45.456;11.064;2022-12-18T09:12:45;14.70;;;9.70;;
68744;SDS011;66104;45.456;11.064;2022-12-18T09:15:22;16.90;;;10.60;;
68744;SDS011;66104;45.456;11.064;2022-12-18T09:18:00;14.80;;;10.00;;
68744;SDS011;66104;45.456;11.064;2022-12-18T09:20:37;52.40;;;26.70;;
68744;SDS011;66104;45.456;11.064;2022-12-18T09:23:13;82.50;;;39.40;;
68744;SDS011;66104;45.456;11.064;2022-12-18T09:25:50;104.60;;;51.00;;
68744;SDS011;66104;45.456;11.064;2022-12-18T09:28:32;43.10;;;23.00;;
68744;SDS011;66104;45.456;11.064;2022-12-18T09:31:11;18.50;;;11.10;;
68744;SDS011;66104;45.456;11.064;2022-12-18T09:33:53;13.00;;;8.80;;
68744;SDS011;66104;45.456;11.064;2022-12-18T09:36:31;11.60;;;8.60;;
68744;SDS011;66104;45.456;11.064;2022-12-18T09:39:08;12.70;;;9.30;;
68744;SDS011;66104;45.456;11.064;2022-12-18T09:41:50;13.20;;;9.10;;
68744;SDS011;66104;45.456;11.064;2022-12-18T09:44:30;12.70;;;9.20;;
68744;SDS011;66104;45.456;11.064;2022-12-18T09:47:19;14.40;;;9.00;;
68744;SDS011;66104;45.456;11.064;2022-12-18T09:50:05;12.50;;;8.50;;
68744;SDS011;66104;45.456;11.064;2022-12-18T09:53:04;12.10;;;8.20;;
68744;SDS011;66104;45.456;11.064;2022-12-18T09:55:49;12.00;;;8.90;;
68744;SDS011;66104;45.456;11.064;2022-12-18T09:58:30;11.10;;;8.00;;
68744;SDS011;66104;45.456;11.064;2022-12-18T10:01:18;12.20;;;8.40;;
68744;SDS011;66104;45.456;11.064;2022-12-18T10:04:11;12.90;;;8.70;;
68744;SDS011;66104;45.456;11.064;2022-12-18T10:06:54;11.20;;;8.70;;
68744;SDS011;66104;45.456;11.064;2022-12-18T10:09:45;12.40;;;9.50;;
68744;SDS011;66104;45.456;11.064;2022-12-18T10:12:31;12.60;;;8.60;;
68744;SDS011;66104;45.456;11.064;2022-12-18T10:15:23;11.60;;;8.50;;
68744;SDS011;66104;45.456;11.064;2022-12-18T10:18:16;11.30;;;8.30;;
68744;SDS011;66104;45.456;11.064;2022-12-18T10:21:12;14.90;;;8.50;;
68744;SDS011;66104;45.456;11.064;2022-12-18T10:23:58;12.80;;;9.60;;
68744;SDS011;66104;45.456;11.064;2022-12-18T10:26:46;13.80;;;9.80;;
68744;SDS011;66104;45.456;11.064;2022-12-18T10:29:26;12.90;;;9.30;;
68744;SDS011;66104;45.456;11.064;2022-12-18T10:32:03;12.70;;;9.40;;
68744;SDS011;66104;45.456;11.064;2022-12-18T10:34:44;14.50;;;9.20;;
68744;SDS011;66104;45.456;11.064;2022-12-18T10:37:32;14.80;;;9.20;;
68744;SDS011;66104;45.456;11.064;2022-12-18T10:40:13;14.90;;;9.70;;
68744;SDS011;66104;45.456;11.064;2022-12-18T10:43:05;14.30;;;10.00;;
68744;SDS011;66104;45.456;11.064;2022-12-18T10:48:56;13.90;;;9.10;;
68744;SDS011;66104;45.456;11.064;2022-12-18T10:51:36;12.20;;;8.80;;
68744;SDS011;66104;45.456;11.064;2022-12-18T10:54:17;13.00;;;9.20;;
68744;SDS011;66104;45.456;11.064;2022-12-18T10:57:28;12.40;;;8.80;;
68744;SDS011;66104;45.456;11.064;2022-12-18T11:00:27;13.40;;;9.20;;
68744;SDS011;66104;45.456;11.064;2022-12-18T11:03:32;11.50;;;8.60;;
68744;SDS011;66104;45.456;11.064;2022-12-18T11:06:12;13.10;;;9.20;;
68744;SDS011;66104;45.456;11.064;2022-12-18T11:09:00;13.00;;;9.20;;
68744;SDS011;66104;45.456;11.064;2022-12-18T11:11:51;13.10;;;9.30;;
68744;SDS011;66104;45.456;11.064;2022-12-18T11:14:31;11.90;;;9.00;;
68744;SDS011;66104;45.456;11.064;2022-12-18T11:17:28;13.90;;;10.00;;
68744;SDS011;66104;45.456;11.064;2022-12-18T11:20:19;14.00;;;9.70;;
68744;SDS011;66104;45.456;11.064;2022-12-18T11:23:03;13.90;;;9.20;;
68744;SDS011;66104;45.456;11.064;2022-12-18T11:25:54;11.30;;;8.30;;
68744;SDS011;66104;45.456;11.064;2022-12-18T11:28:37;13.10;;;10.00;;
68744;SDS011;66104;45.456;11.064;2022-12-18T11:31:28;15.40;;;11.40;;
68744;SDS011;66104;45.456;11.064;2022-12-18T11:34:09;11.40;;;8.40;;
68744;SDS011;66104;45.456;11.064;2022-12-18T11:37:00;14.70;;;9.20;;
68744;SDS011;66104;45.456;11.064;2022-12-18T11:39:40;9.90;;;7.90;;
68744;SDS011;66104;45.456;11.064;2022-12-18T11:42:22;10.30;;;8.10;;
68744;SDS011;66104;45.456;11.064;2022-12-18T11:48:18;13.70;;;9.10;;
68744;SDS011;66104;45.456;11.064;2022-12-18T11:50:57;14.40;;;8.90;;
68744;SDS011;66104;45.456;11.064;2022-12-18T11:53:36;11.80;;;8.70;;
68744;SDS011;66104;45.456;11.064;2022-12-18T11:56:27;14.30;;;9.30;;
68744;SDS011;66104;45.456;11.064;2022-12-18T11:59:15;14.90;;;9.90;;
68744;SDS011;66104;45.456;11.064;2022-12-18T12:02:13;14.10;;;9.20;;
68744;SDS011;66104;45.456;11.064;2022-12-18T12:05:18;12.50;;;9.30;;
68744;SDS011;66104;45.456;11.064;2022-12-18T12:08:10;12.90;;;9.40;;
68744;SDS011;66104;45.456;11.064;2022-12-18T12:11:01;12.60;;;9.30;;
68744;SDS011;66104;45.456;11.064;2022-12-18T12:13:51;14.40;;;9.60;;
68744;SDS011;66104;45.456;11.064;2022-12-18T12:16:41;13.30;;;9.00;;
68744;SDS011;66104;45.456;11.064;2022-12-18T12:19:36;12.80;;;9.10;;
68744;SDS011;66104;45.456;11.064;2022-12-18T12:22:26;12.50;;;8.70;;
68744;SDS011;66104;45.456;11.064;2022-12-18T12:25:21;12.40;;;9.70;;
68744;SDS011;66104;45.456;11.064;2022-12-18T12:28:18;12.20;;;9.30;;
68744;SDS011;66104;45.456;11.064;2022-12-18T12:31:08;12.30;;;9.70;;
68744;SDS011;66104;45.456;11.064;2022-12-18T12:33:56;12.60;;;8.80;;
68744;SDS011;66104;45.456;11.064;2022-12-18T12:36:45;13.00;;;9.80;;
68744;SDS011;66104;45.456;11.064;2022-12-18T12:39:36;12.90;;;9.40;;
68744;SDS011;66104;45.456;11.064;2022-12-18T12:42:20;11.40;;;9.00;;
68744;SDS011;66104;45.456;11.064;2022-12-18T12:45:26;12.60;;;10.00;;
68744;SDS011;66104;45.456;11.064;2022-12-18T12:48:15;13.80;;;10.00;;
68744;SDS011;66104;45.456;11.064;2022-12-18T12:50:59;15.50;;;9.60;;
68744;SDS011;66104;45.456;11.064;2022-12-18T12:53:42;11.90;;;10.20;;
68744;SDS011;66104;45.456;11.064;2022-12-18T12:56:21;14.70;;;10.90;;
68744;SDS011;66104;45.456;11.064;2022-12-18T12:59:08;15.70;;;12.50;;
68744;SDS011;66104;45.456;11.064;2022-12-18T13:02:02;17.00;;;11.50;;
68744;SDS011;66104;45.456;11.064;2022-12-18T13:04:49;15.10;;;10.90;;
68744;SDS011;66104;45.456;11.064;2022-12-18T13:07:35;12.00;;;9.90;;
68744;SDS011;66104;45.456;11.064;2022-12-18T13:10:36;11.00;;;10.90;;
68744;SDS011;66104;45.456;11.064;2022-12-18T13:13:15;12.40;;;9.70;;
68744;SDS011;66104;45.456;11.064;2022-12-18T13:18:57;14.10;;;9.00;;
68744;SDS011;66104;45.456;11.064;2022-12-18T13:21:35;13.30;;;9.40;;
68744;SDS011;66104;45.456;11.064;2022-12-18T13:24:25;13.10;;;9.90;;
68744;SDS011;66104;45.456;11.064;2022-12-18T13:30:52;12.80;;;9.00;;
68744;SDS011;66104;45.456;11.064;2022-12-18T13:33:42;11.70;;;8.80;;
68744;SDS011;66104;45.456;11.064;2022-12-18T13:36:40;11.30;;;8.50;;
68744;SDS011;66104;45.456;11.064;2022-12-18T13:39:33;11.20;;;8.50;;
68744;SDS011;66104;45.456;11.064;2022-12-18T13:42:41;11.20;;;8.50;;
68744;SDS011;66104;45.456;11.064;2022-12-18T13:46:03;11.20;;;8.20;;
68744;SDS011;66104;45.456;11.064;2022-12-18T13:49:00;11.50;;;8.40;;
68744;SDS011;66104;45.456;11.064;2022-12-18T13:51:42;12.10;;;9.10;;
68744;SDS011;66104;45.456;11.064;2022-12-18T13:54:25;9.90;;;7.80;;
68744;SDS011;66104;45.456;11.064;2022-12-18T13:57:28;9.10;;;7.60;;
68744;SDS011;66104;45.456;11.064;2022-12-18T14:00:27;12.10;;;8.30;;
68744;SDS011;66104;45.456;11.064;2022-12-18T14:03:19;11.80;;;8.20;;
68744;SDS011;66104;45.456;11.064;2022-12-18T14:06:10;12.00;;;8.60;;
68744;SDS011;66104;45.456;11.064;2022-12-18T14:08:49;12.60;;;9.50;;
68744;SDS011;66104;45.456;11.064;2022-12-18T14:11:27;11.00;;;8.00;;
68744;SDS011;66104;45.456;11.064;2022-12-18T14:14:05;11.80;;;7.90;;
68744;SDS011;66104;45.456;11.064;2022-12-18T14:16:43;11.20;;;8.90;;
68744;SDS011;66104;45.456;11.064;2022-12-18T14:19:20;11.20;;;8.80;;
68744;SDS011;66104;45.456;11.064;2022-12-18T14:21:59;10.80;;;8.00;;
68744;SDS011;66104;45.456;11.064;2022-12-18T14:24:36;12.80;;;8.90;;
68744;SDS011;66104;45.456;11.064;2022-12-18T14:27:24;11.40;;;8.00;;
68744;SDS011;66104;45.456;11.064;2022-12-18T14:30:00;10.70;;;8.20;;
68744;SDS011;66104;45.456;11.064;2022-12-18T14:33:03;10.20;;;7.50;;
68744;SDS011;66104;45.456;11.064;2022-12-18T14:35:54;10.80;;;7.60;;
68744;SDS011;66104;45.456;11.064;2022-12-18T14:38:35;13.40;;;8.70;;
68744;SDS011;66104;45.456;11.064;2022-12-18T14:41:16;13.20;;;8.90;;
68744;SDS011;66104;45.456;11.064;2022-12-18T14:43:54;11.60;;;8.60;;
68744;SDS011;66104;45.456;11.064;2022-12-18T14:46:39;14.10;;;8.80;;
68744;SDS011;66104;45.456;11.064;2022-12-18T14:49:24;11.40;;;8.60;;
68744;SDS011;66104;45.456;11.064;2022-12-18T14:52:05;12.50;;;8.60;;
68744;SDS011;66104;45.456;11.064;2022-12-18T14:54:52;14.00;;;9.30;;
68744;SDS011;66104;45.456;11.064;2022-12-18T14:57:34;15.00;;;11.20;;
68744;SDS011;66104;45.456;11.064;2022-12-18T15:00:18;13.20;;;11.30;;
68744;SDS011;66104;45.456;11.064;2022-12-18T15:02:57;12.90;;;9.50;;
68744;SDS011;66104;45.456;11.064;2022-12-18T15:05:35;28.90;;;21.50;;
68744;SDS011;66104;45.456;11.064;2022-12-18T15:11:35;22.00;;;17.00;;
68744;SDS011;66104;45.456;11.064;2022-12-18T15:14:33;14.90;;;11.40;;
68744;SDS011;66104;45.456;11.064;2022-12-18T15:17:21;13.30;;;9.60;;
68744;SDS011;66104;45.456;11.064;2022-12-18T15:20:02;11.90;;;9.10;;
68744;SDS011;66104;45.456;11.064;2022-12-18T15:22:43;13.20;;;9.10;;
68744;SDS011;66104;45.456;11.064;2022-12-18T15:25:30;13.30;;;9.70;;
68744;SDS011;66104;45.456;11.064;2022-12-18T15:28:20;11.90;;;8.60;;
68744;SDS011;66104;45.456;11.064;2022-12-18T15:31:18;12.00;;;8.80;;
68744;SDS011;66104;45.456;11.064;2022-12-18T15:34:11;12.50;;;9.20;;
68744;SDS011;66104;45.456;11.064;2022-12-18T15:36:55;12.80;;;9.90;;
68744;SDS011;66104;45.456;11.064;2022-12-18T15:39:32;13.20;;;10.10;;
68744;SDS011;66104;45.456;11.064;2022-12-18T15:42:10;12.80;;;10.10;;
68744;SDS011;66104;45.456;11.064;2022-12-18T15:45:13;12.70;;;9.70;;
68744;SDS011;66104;45.456;11.064;2022-12-18T15:47:50;14.70;;;9.20;;
68744;SDS011;66104;45.456;11.064;2022-12-18T15:50:27;14.10;;;9.70;;
68744;SDS011;66104;45.456;11.064;2022-12-18T15:53:05;13.90;;;8.60;;
68744;SDS011;66104;45.456;11.064;2022-12-18T15:55:43;17.30;;;11.00;;
68744;SDS011;66104;45.456;11.064;2022-12-18T15:58:37;17.90;;;11.90;;
68744;SDS011;66104;45.456;11.064;2022-12-18T16:01:15;18.60;;;14.20;;
68744;SDS011;66104;45.456;11.064;2022-12-18T16:03:53;16.80;;;11.10;;
68744;SDS011;66104;45.456;11.064;2022-12-18T16:06:30;15.10;;;10.40;;
68744;SDS011;66104;45.456;11.064;2022-12-18T16:09:27;14.10;;;9.70;;
68744;SDS011;66104;45.456;11.064;2022-12-18T16:12:06;16.60;;;10.10;;